ZZV weather

Zanesville Municipal Airport
Zanesville, Ohio, United States

Public forecast

Using degrees Fahrenheit for public forecast. Weather courtesy of forecast.io.

Current aviation weather report (METAR) for Zanesville Municipal Airport

Retrieved 2020/05/27 21:53 UTC (28 minutes ago):

KZZV 272153Z AUTO 15010KT 10SM CLR 28/18 A3000 RMK AO2 SLP153 T02830178

Aviation forecast (TAF) for Zanesville Municipal Airport

Retrieved 2020/05/27 18:40 UTC (4 hours ago):

TAF KZZV 271737Z 2718/2818 15003KT P6SM FEW028 SCT200 FM280600 00000KT P6SM VCSH SCT009 OVC070 FM281000 00000KT P6SM VCSH SCT002 OVC020 FM281200 00000KT P6SM SCT002 BKN007 FM281600 00000KT P6SM FEW013 SCT015